sensor_id;sensor_type;location;lat;lon;timestamp;P1;durP1;ratioP1;P2;durP2;ratioP2
32838;SDS011;19182;41.820;12.808;2022-10-29T00:00:40;28.60;;;12.43;;
32838;SDS011;19182;41.820;12.808;2022-10-29T00:03:06;25.55;;;11.15;;
32838;SDS011;19182;41.820;12.808;2022-10-29T00:05:32;25.50;;;10.75;;
32838;SDS011;19182;41.820;12.808;2022-10-29T00:08:01;29.80;;;10.95;;
32838;SDS011;19182;41.820;12.808;2022-10-29T00:10:27;28.42;;;10.40;;
32838;SDS011;19182;41.820;12.808;2022-10-29T00:12:59;23.40;;;10.37;;
32838;SDS011;19182;41.820;12.808;2022-10-29T00:15:28;33.28;;;11.45;;
32838;SDS011;19182;41.820;12.808;2022-10-29T00:17:54;35.17;;;12.25;;
32838;SDS011;19182;41.820;12.808;2022-10-29T00:20:21;29.80;;;10.75;;
32838;SDS011;19182;41.820;12.808;2022-10-29T00:22:49;27.15;;;9.85;;
32838;SDS011;19182;41.820;12.808;2022-10-29T00:25:17;30.65;;;10.40;;
32838;SDS011;19182;41.820;12.808;2022-10-29T00:27:43;32.85;;;10.70;;
32838;SDS011;19182;41.820;12.808;2022-10-29T00:30:10;22.02;;;10.32;;
32838;SDS011;19182;41.820;12.808;2022-10-29T00:32:36;27.25;;;10.30;;
32838;SDS011;19182;41.820;12.808;2022-10-29T00:35:02;31.00;;;10.70;;
32838;SDS011;19182;41.820;12.808;2022-10-29T00:37:27;25.17;;;10.90;;
32838;SDS011;19182;41.820;12.808;2022-10-29T00:39:53;33.35;;;9.85;;
32838;SDS011;19182;41.820;12.808;2022-10-29T00:42:19;37.03;;;11.07;;
32838;SDS011;19182;41.820;12.808;2022-10-29T00:44:45;30.00;;;9.75;;
32838;SDS011;19182;41.820;12.808;2022-10-29T00:47:21;25.90;;;10.07;;
32838;SDS011;19182;41.820;12.808;2022-10-29T00:50:08;36.80;;;11.63;;
32838;SDS011;19182;41.820;12.808;2022-10-29T00:52:38;26.10;;;10.52;;
32838;SDS011;19182;41.820;12.808;2022-10-29T00:55:08;24.63;;;10.48;;
32838;SDS011;19182;41.820;12.808;2022-10-29T00:57:37;34.05;;;10.70;;
32838;SDS011;19182;41.820;12.808;2022-10-29T01:00:06;27.60;;;9.95;;
32838;SDS011;19182;41.820;12.808;2022-10-29T01:02:32;29.85;;;9.18;;
32838;SDS011;19182;41.820;12.808;2022-10-29T01:05:00;27.20;;;9.38;;
32838;SDS011;19182;41.820;12.808;2022-10-29T01:07:29;31.42;;;9.95;;
32838;SDS011;19182;41.820;12.808;2022-10-29T01:09:55;31.50;;;10.35;;
32838;SDS011;19182;41.820;12.808;2022-10-29T01:15:02;25.85;;;9.75;;
32838;SDS011;19182;41.820;12.808;2022-10-29T01:35:03;31.30;;;9.60;;
32838;SDS011;19182;41.820;12.808;2022-10-29T01:37:27;23.90;;;8.88;;
32838;SDS011;19182;41.820;12.808;2022-10-29T01:42:52;24.52;;;9.43;;
32838;SDS011;19182;41.820;12.808;2022-10-29T01:45:35;30.23;;;10.32;;
32838;SDS011;19182;41.820;12.808;2022-10-29T01:48:11;21.08;;;9.90;;
32838;SDS011;19182;41.820;12.808;2022-10-29T01:50:41;31.85;;;9.60;;
32838;SDS011;19182;41.820;12.808;2022-10-29T01:53:09;25.65;;;9.88;;
32838;SDS011;19182;41.820;12.808;2022-10-29T01:55:36;26.17;;;9.45;;
32838;SDS011;19182;41.820;12.808;2022-10-29T01:58:05;27.50;;;9.18;;
32838;SDS011;19182;41.820;12.808;2022-10-29T02:00:34;24.40;;;9.40;;
32838;SDS011;19182;41.820;12.808;2022-10-29T02:08:54;21.23;;;8.70;;
32838;SDS011;19182;41.820;12.808;2022-10-29T02:14:11;27.45;;;8.75;;
32838;SDS011;19182;41.820;12.808;2022-10-29T02:16:41;26.20;;;9.02;;
32838;SDS011;19182;41.820;12.808;2022-10-29T02:19:08;25.63;;;8.45;;
32838;SDS011;19182;41.820;12.808;2022-10-29T02:21:33;18.33;;;8.43;;
32838;SDS011;19182;41.820;12.808;2022-10-29T02:24:02;20.65;;;7.68;;
32838;SDS011;19182;41.820;12.808;2022-10-29T02:26:28;19.52;;;7.97;;
32838;SDS011;19182;41.820;12.808;2022-10-29T02:28:54;16.48;;;7.93;;
32838;SDS011;19182;41.820;12.808;2022-10-29T02:31:21;21.67;;;8.10;;
32838;SDS011;19182;41.820;12.808;2022-10-29T02:33:47;19.38;;;7.78;;
32838;SDS011;19182;41.820;12.808;2022-10-29T02:36:13;22.23;;;7.95;;
32838;SDS011;19182;41.820;12.808;2022-10-29T02:38:38;21.45;;;8.73;;
32838;SDS011;19182;41.820;12.808;2022-10-29T02:41:04;23.65;;;8.27;;
32838;SDS011;19182;41.820;12.808;2022-10-29T02:43:30;22.50;;;8.00;;
32838;SDS011;19182;41.820;12.808;2022-10-29T02:46:15;27.60;;;8.18;;
32838;SDS011;19182;41.820;12.808;2022-10-29T02:48:42;24.08;;;8.75;;
32838;SDS011;19182;41.820;12.808;2022-10-29T02:51:08;16.88;;;8.05;;
32838;SDS011;19182;41.820;12.808;2022-10-29T02:53:35;25.73;;;8.38;;
32838;SDS011;19182;41.820;12.808;2022-10-29T02:56:00;18.55;;;8.02;;
32838;SDS011;19182;41.820;12.808;2022-10-29T02:58:26;19.42;;;7.57;;
32838;SDS011;19182;41.820;12.808;2022-10-29T03:00:52;24.80;;;7.95;;
32838;SDS011;19182;41.820;12.808;2022-10-29T03:03:18;19.70;;;7.78;;
32838;SDS011;19182;41.820;12.808;2022-10-29T03:05:44;22.52;;;8.00;;
32838;SDS011;19182;41.820;12.808;2022-10-29T03:08:10;22.35;;;9.00;;
32838;SDS011;19182;41.820;12.808;2022-10-29T03:10:36;25.27;;;8.15;;
32838;SDS011;19182;41.820;12.808;2022-10-29T03:13:03;22.98;;;7.97;;
32838;SDS011;19182;41.820;12.808;2022-10-29T03:15:29;25.88;;;8.45;;
32838;SDS011;19182;41.820;12.808;2022-10-29T03:17:55;19.60;;;6.97;;
32838;SDS011;19182;41.820;12.808;2022-10-29T03:20:21;20.45;;;8.50;;
32838;SDS011;19182;41.820;12.808;2022-10-29T03:22:48;21.80;;;8.55;;
32838;SDS011;19182;41.820;12.808;2022-10-29T03:25:14;25.00;;;7.93;;
32838;SDS011;19182;41.820;12.808;2022-10-29T03:27:41;20.13;;;7.47;;
32838;SDS011;19182;41.820;12.808;2022-10-29T03:30:08;22.80;;;7.38;;
32838;SDS011;19182;41.820;12.808;2022-10-29T03:32:45;23.33;;;8.98;;
32838;SDS011;19182;41.820;12.808;2022-10-29T03:35:12;18.52;;;7.60;;
32838;SDS011;19182;41.820;12.808;2022-10-29T03:37:39;17.63;;;7.55;;
32838;SDS011;19182;41.820;12.808;2022-10-29T03:40:06;22.90;;;7.70;;
32838;SDS011;19182;41.820;12.808;2022-10-29T03:42:33;19.25;;;7.05;;
32838;SDS011;19182;41.820;12.808;2022-10-29T03:44:59;21.85;;;9.02;;
32838;SDS011;19182;41.820;12.808;2022-10-29T03:47:26;20.80;;;7.32;;
32838;SDS011;19182;41.820;12.808;2022-10-29T03:49:53;25.08;;;7.80;;
32838;SDS011;19182;41.820;12.808;2022-10-29T03:52:19;19.77;;;7.90;;
32838;SDS011;19182;41.820;12.808;2022-10-29T03:54:46;25.67;;;7.57;;
32838;SDS011;19182;41.820;12.808;2022-10-29T03:57:13;20.88;;;7.78;;
32838;SDS011;19182;41.820;12.808;2022-10-29T03:59:39;20.55;;;7.63;;
32838;SDS011;19182;41.820;12.808;2022-10-29T04:02:05;22.63;;;6.68;;
32838;SDS011;19182;41.820;12.808;2022-10-29T04:04:31;22.48;;;7.65;;
32838;SDS011;19182;41.820;12.808;2022-10-29T04:06:56;21.90;;;7.10;;
32838;SDS011;19182;41.820;12.808;2022-10-29T04:09:22;18.52;;;7.40;;
32838;SDS011;19182;41.820;12.808;2022-10-29T04:11:48;22.42;;;7.18;;
32838;SDS011;19182;41.820;12.808;2022-10-29T04:14:13;18.75;;;7.18;;
32838;SDS011;19182;41.820;12.808;2022-10-29T04:16:39;21.95;;;6.95;;
32838;SDS011;19182;41.820;12.808;2022-10-29T04:19:06;18.75;;;7.40;;
32838;SDS011;19182;41.820;12.808;2022-10-29T04:21:31;25.45;;;7.68;;
32838;SDS011;19182;41.820;12.808;2022-10-29T04:23:58;21.77;;;7.13;;
32838;SDS011;19182;41.820;12.808;2022-10-29T04:26:25;20.65;;;8.35;;
32838;SDS011;19182;41.820;12.808;2022-10-29T04:28:50;15.23;;;6.38;;
32838;SDS011;19182;41.820;12.808;2022-10-29T04:31:17;20.38;;;6.75;;
32838;SDS011;19182;41.820;12.808;2022-10-29T04:33:43;19.15;;;6.25;;
32838;SDS011;19182;41.820;12.808;2022-10-29T04:36:09;15.45;;;6.47;;
32838;SDS011;19182;41.820;12.808;2022-10-29T04:38:35;15.60;;;6.47;;
32838;SDS011;19182;41.820;12.808;2022-10-29T04:41:01;16.25;;;6.30;;
32838;SDS011;19182;41.820;12.808;2022-10-29T04:43:27;25.77;;;6.53;;
32838;SDS011;19182;41.820;12.808;2022-10-29T04:45:57;18.80;;;6.78;;
32838;SDS011;19182;41.820;12.808;2022-10-29T04:48:24;18.75;;;6.25;;
32838;SDS011;19182;41.820;12.808;2022-10-29T04:50:51;26.08;;;7.22;;
32838;SDS011;19182;41.820;12.808;2022-10-29T04:53:17;16.63;;;6.85;;
32838;SDS011;19182;41.820;12.808;2022-10-29T04:55:44;15.05;;;6.72;;
32838;SDS011;19182;41.820;12.808;2022-10-29T04:58:11;27.52;;;6.93;;
32838;SDS011;19182;41.820;12.808;2022-10-29T05:00:40;21.35;;;6.70;;
32838;SDS011;19182;41.820;12.808;2022-10-29T05:03:05;19.40;;;6.57;;
32838;SDS011;19182;41.820;12.808;2022-10-29T05:05:33;25.65;;;7.65;;
32838;SDS011;19182;41.820;12.808;2022-10-29T05:08:00;19.15;;;6.30;;
32838;SDS011;19182;41.820;12.808;2022-10-29T05:10:28;19.40;;;7.07;;
32838;SDS011;19182;41.820;12.808;2022-10-29T05:12:58;25.70;;;6.95;;
32838;SDS011;19182;41.820;12.808;2022-10-29T05:15:41;18.52;;;5.80;;
32838;SDS011;19182;41.820;12.808;2022-10-29T05:18:08;17.95;;;5.93;;
32838;SDS011;19182;41.820;12.808;2022-10-29T05:20:34;14.25;;;7.25;;
32838;SDS011;19182;41.820;12.808;2022-10-29T05:23:07;21.38;;;6.68;;
32838;SDS011;19182;41.820;12.808;2022-10-29T05:25:38;22.17;;;5.57;;
32838;SDS011;19182;41.820;12.808;2022-10-29T05:28:08;20.73;;;6.13;;
32838;SDS011;19182;41.820;12.808;2022-10-29T05:30:36;21.70;;;6.35;;
32838;SDS011;19182;41.820;12.808;2022-10-29T05:33:08;21.33;;;6.15;;
32838;SDS011;19182;41.820;12.808;2022-10-29T05:35:36;20.20;;;5.60;;
32838;SDS011;19182;41.820;12.808;2022-10-29T05:38:02;15.55;;;6.60;;
32838;SDS011;19182;41.820;12.808;2022-10-29T05:40:29;18.60;;;6.88;;
32838;SDS011;19182;41.820;12.808;2022-10-29T05:42:55;16.17;;;5.78;;
32838;SDS011;19182;41.820;12.808;2022-10-29T05:45:22;12.63;;;6.00;;
32838;SDS011;19182;41.820;12.808;2022-10-29T05:47:48;15.00;;;7.25;;
32838;SDS011;19182;41.820;12.808;2022-10-29T05:50:20;15.63;;;5.65;;
32838;SDS011;19182;41.820;12.808;2022-10-29T05:52:53;11.70;;;5.00;;
32838;SDS011;19182;41.820;12.808;2022-10-29T05:55:19;16.08;;;4.65;;
32838;SDS011;19182;41.820;12.808;2022-10-29T05:57:45;17.75;;;5.70;;
32838;SDS011;19182;41.820;12.808;2022-10-29T06:00:14;11.52;;;4.78;;
32838;SDS011;19182;41.820;12.808;2022-10-29T06:02:43;16.83;;;5.38;;
32838;SDS011;19182;41.820;12.808;2022-10-29T06:05:09;14.23;;;4.65;;
32838;SDS011;19182;41.820;12.808;2022-10-29T06:07:35;12.15;;;4.63;;
32838;SDS011;19182;41.820;12.808;2022-10-29T06:10:02;17.30;;;5.20;;
32838;SDS011;19182;41.820;12.808;2022-10-29T06:12:31;10.63;;;4.22;;
32838;SDS011;19182;41.820;12.808;2022-10-29T06:14:58;19.83;;;4.85;;
32838;SDS011;19182;41.820;12.808;2022-10-29T06:17:24;13.93;;;4.55;;
32838;SDS011;19182;41.820;12.808;2022-10-29T06:19:51;12.93;;;5.15;;
32838;SDS011;19182;41.820;12.808;2022-10-29T06:22:17;11.90;;;4.05;;
32838;SDS011;19182;41.820;12.808;2022-10-29T06:24:45;23.02;;;5.18;;
32838;SDS011;19182;41.820;12.808;2022-10-29T06:27:11;16.63;;;4.85;;
32838;SDS011;19182;41.820;12.808;2022-10-29T06:29:37;12.68;;;4.45;;
32838;SDS011;19182;41.820;12.808;2022-10-29T06:32:03;15.18;;;4.05;;
32838;SDS011;19182;41.820;12.808;2022-10-29T06:34:30;18.08;;;4.65;;
32838;SDS011;19182;41.820;12.808;2022-10-29T06:36:57;18.20;;;4.05;;
32838;SDS011;19182;41.820;12.808;2022-10-29T06:39:23;11.98;;;3.22;;
32838;SDS011;19182;41.820;12.808;2022-10-29T06:41:50;14.18;;;3.83;;
32838;SDS011;19182;41.820;12.808;2022-10-29T06:44:15;12.45;;;3.80;;
32838;SDS011;19182;41.820;12.808;2022-10-29T06:46:43;15.65;;;4.85;;
32838;SDS011;19182;41.820;12.808;2022-10-29T06:49:08;12.13;;;3.47;;
32838;SDS011;19182;41.820;12.808;2022-10-29T06:51:34;10.07;;;3.67;;
32838;SDS011;19182;41.820;12.808;2022-10-29T06:54:04;13.23;;;3.40;;
32838;SDS011;19182;41.820;12.808;2022-10-29T06:56:29;12.75;;;3.30;;
32838;SDS011;19182;41.820;12.808;2022-10-29T06:58:55;11.20;;;3.33;;
32838;SDS011;19182;41.820;12.808;2022-10-29T07:01:21;13.50;;;4.15;;
32838;SDS011;19182;41.820;12.808;2022-10-29T07:03:47;14.60;;;3.28;;
32838;SDS011;19182;41.820;12.808;2022-10-29T07:06:14;9.38;;;3.20;;
32838;SDS011;19182;41.820;12.808;2022-10-29T07:08:40;7.43;;;2.65;;
32838;SDS011;19182;41.820;12.808;2022-10-29T07:11:07;6.53;;;2.33;;
32838;SDS011;19182;41.820;12.808;2022-10-29T07:13:32;5.60;;;2.47;;
32838;SDS011;19182;41.820;12.808;2022-10-29T07:15:58;9.02;;;2.72;;
32838;SDS011;19182;41.820;12.808;2022-10-29T07:18:25;8.30;;;2.13;;
32838;SDS011;19182;41.820;12.808;2022-10-29T07:20:51;5.13;;;2.30;;
32838;SDS011;19182;41.820;12.808;2022-10-29T07:23:17;5.60;;;2.00;;
32838;SDS011;19182;41.820;12.808;2022-10-29T07:25:43;5.50;;;1.90;;
32838;SDS011;19182;41.820;12.808;2022-10-29T07:30:38;6.38;;;1.80;;
32838;SDS011;19182;41.820;12.808;2022-10-29T07:33:04;8.65;;;2.03;;
32838;SDS011;19182;41.820;12.808;2022-10-29T07:35:31;7.25;;;1.83;;
32838;SDS011;19182;41.820;12.808;2022-10-29T07:37:59;7.32;;;1.73;;
32838;SDS011;19182;41.820;12.808;2022-10-29T07:40:25;6.18;;;1.98;;
32838;SDS011;19182;41.820;12.808;2022-10-29T07:42:51;4.20;;;1.60;;
32838;SDS011;19182;41.820;12.808;2022-10-29T07:45:17;7.88;;;1.73;;
32838;SDS011;19182;41.820;12.808;2022-10-29T07:47:45;5.07;;;1.80;;
32838;SDS011;19182;41.820;12.808;2022-10-29T07:50:11;7.97;;;2.00;;
32838;SDS011;19182;41.820;12.808;2022-10-29T07:52:38;6.13;;;1.90;;
32838;SDS011;19182;41.820;12.808;2022-10-29T07:55:05;7.60;;;1.85;;
32838;SDS011;19182;41.820;12.808;2022-10-29T07:57:33;14.07;;;2.25;;
32838;SDS011;19182;41.820;12.808;2022-10-29T07:59:58;6.97;;;1.92;;
32838;SDS011;19182;41.820;12.808;2022-10-29T08:02:24;5.63;;;1.80;;
32838;SDS011;19182;41.820;12.808;2022-10-29T08:04:50;9.55;;;2.08;;
32838;SDS011;19182;41.820;12.808;2022-10-29T08:07:16;9.77;;;1.92;;
32838;SDS011;19182;41.820;12.808;2022-10-29T08:09:41;11.93;;;2.30;;
32838;SDS011;19182;41.820;12.808;2022-10-29T08:12:09;9.65;;;1.80;;
32838;SDS011;19182;41.820;12.808;2022-10-29T08:14:38;9.95;;;2.38;;
32838;SDS011;19182;41.820;12.808;2022-10-29T08:17:06;5.32;;;2.42;;
32838;SDS011;19182;41.820;12.808;2022-10-29T08:19:33;9.07;;;2.25;;
32838;SDS011;19182;41.820;12.808;2022-10-29T08:21:59;9.80;;;2.65;;
32838;SDS011;19182;41.820;12.808;2022-10-29T08:24:24;7.72;;;2.25;;
32838;SDS011;19182;41.820;12.808;2022-10-29T08:26:50;7.40;;;2.80;;
32838;SDS011;19182;41.820;12.808;2022-10-29T08:29:16;5.65;;;2.60;;
32838;SDS011;19182;41.820;12.808;2022-10-29T08:31:42;12.40;;;3.80;;
32838;SDS011;19182;41.820;12.808;2022-10-29T08:34:09;9.57;;;2.78;;
32838;SDS011;19182;41.820;12.808;2022-10-29T08:36:35;12.40;;;3.28;;
32838;SDS011;19182;41.820;12.808;2022-10-29T08:39:01;9.95;;;3.47;;
32838;SDS011;19182;41.820;12.808;2022-10-29T08:47:19;29.90;;;15.20;;
32838;SDS011;19182;41.820;12.808;2022-10-29T08:52:36;14.50;;;7.03;;
32838;SDS011;19182;41.820;12.808;2022-10-29T08:57:32;76.63;;;50.90;;
32838;SDS011;19182;41.820;12.808;2022-10-29T09:00:03;30.48;;;17.90;;
32838;SDS011;19182;41.820;12.808;2022-10-29T09:02:31;30.30;;;17.00;;
32838;SDS011;19182;41.820;12.808;2022-10-29T09:04:57;44.33;;;26.35;;
32838;SDS011;19182;41.820;12.808;2022-10-29T09:10:31;19.13;;;9.55;;
32838;SDS011;19182;41.820;12.808;2022-10-29T09:13:21;18.35;;;9.18;;
32838;SDS011;19182;41.820;12.808;2022-10-29T09:26:51;13.88;;;5.35;;
32838;SDS011;19182;41.820;12.808;2022-10-29T09:32:21;13.07;;;3.88;;
32838;SDS011;19182;41.820;12.808;2022-10-29T09:34:55;10.20;;;3.72;;
32838;SDS011;19182;41.820;12.808;2022-10-29T09:37:32;14.13;;;4.35;;
32838;SDS011;19182;41.820;12.808;2022-10-29T09:43:06;9.38;;;3.60;;
32838;SDS011;19182;41.820;12.808;2022-10-29T09:51:31;15.32;;;6.53;;
32838;SDS011;19182;41.820;12.808;2022-10-29T09:54:07;17.00;;;7.88;;
32838;SDS011;19182;41.820;12.808;2022-10-29T09:56:40;7.03;;;2.47;;
32838;SDS011;19182;41.820;12.808;2022-10-29T10:01:47;7.25;;;2.45;;
32838;SDS011;19182;41.820;12.808;2022-10-29T10:04:21;5.85;;;2.20;;
32838;SDS011;19182;41.820;12.808;2022-10-29T10:07:04;7.57;;;2.45;;
32838;SDS011;19182;41.820;12.808;2022-10-29T10:12:20;7.95;;;2.30;;
32838;SDS011;19182;41.820;12.808;2022-10-29T10:15:00;12.88;;;4.53;;
32838;SDS011;19182;41.820;12.808;2022-10-29T10:23:12;6.40;;;2.67;;
32838;SDS011;19182;41.820;12.808;2022-10-29T10:25:59;8.70;;;3.28;;
32838;SDS011;19182;41.820;12.808;2022-10-29T10:28:26;10.30;;;2.67;;
32838;SDS011;19182;41.820;12.808;2022-10-29T10:33:29;6.68;;;2.45;;
32838;SDS011;19182;41.820;12.808;2022-10-29T10:35:59;7.07;;;2.40;;
32838;SDS011;19182;41.820;12.808;2022-10-29T10:38:40;6.65;;;2.60;;
32838;SDS011;19182;41.820;12.808;2022-10-29T10:41:11;13.05;;;3.03;;
32838;SDS011;19182;41.820;12.808;2022-10-29T10:46:12;8.57;;;2.40;;
32838;SDS011;19182;41.820;12.808;2022-10-29T10:49:07;7.03;;;2.80;;
32838;SDS011;19182;41.820;12.808;2022-10-29T10:51:52;12.40;;;2.80;;
32838;SDS011;19182;41.820;12.808;2022-10-29T11:05:20;10.10;;;2.80;;
32838;SDS011;19182;41.820;12.808;2022-10-29T11:10:50;5.32;;;2.00;;
32838;SDS011;19182;41.820;12.808;2022-10-29T11:13:22;7.60;;;2.30;;
32838;SDS011;19182;41.820;12.808;2022-10-29T11:18:36;11.48;;;2.28;;
32838;SDS011;19182;41.820;12.808;2022-10-29T11:24:01;6.25;;;1.55;;
32838;SDS011;19182;41.820;12.808;2022-10-29T11:26:43;5.75;;;1.80;;
32838;SDS011;19182;41.820;12.808;2022-10-29T11:29:21;7.75;;;2.47;;
32838;SDS011;19182;41.820;12.808;2022-10-29T11:32:25;7.75;;;2.15;;
32838;SDS011;19182;41.820;12.808;2022-10-29T11:35:08;9.20;;;2.72;;
32838;SDS011;19182;41.820;12.808;2022-10-29T11:37:49;7.13;;;2.55;;
32838;SDS011;19182;41.820;12.808;2022-10-29T11:40:18;6.50;;;2.28;;
32838;SDS011;19182;41.820;12.808;2022-10-29T11:42:48;5.40;;;2.35;;
32838;SDS011;19182;41.820;12.808;2022-10-29T11:45:19;6.78;;;3.00;;
32838;SDS011;19182;41.820;12.808;2022-10-29T11:48:02;9.23;;;3.58;;
32838;SDS011;19182;41.820;12.808;2022-10-29T11:59:12;7.88;;;2.80;;
32838;SDS011;19182;41.820;12.808;2022-10-29T12:01:56;9.13;;;2.75;;
32838;SDS011;19182;41.820;12.808;2022-10-29T12:04:32;5.55;;;2.40;;
32838;SDS011;19182;41.820;12.808;2022-10-29T12:07:28;7.72;;;2.20;;
32838;SDS011;19182;41.820;12.808;2022-10-29T12:10:17;9.95;;;2.47;;
32838;SDS011;19182;41.820;12.808;2022-10-29T12:13:11;8.95;;;2.60;;
32838;SDS011;19182;41.820;12.808;2022-10-29T12:30:03;11.10;;;3.00;;
32838;SDS011;19182;41.820;12.808;2022-10-29T12:35:42;11.98;;;2.60;;
32838;SDS011;19182;41.820;12.808;2022-10-29T12:41:02;5.75;;;2.42;;
32838;SDS011;19182;41.820;12.808;2022-10-29T12:43:41;6.93;;;2.55;;
32838;SDS011;19182;41.820;12.808;2022-10-29T12:54:37;5.13;;;2.42;;
32838;SDS011;19182;41.820;12.808;2022-10-29T12:57:16;7.30;;;2.53;;
32838;SDS011;19182;41.820;12.808;2022-10-29T12:59:52;5.90;;;2.60;;
32838;SDS011;19182;41.820;12.808;2022-10-29T13:05:13;18.33;;;11.05;;
32838;SDS011;19182;41.820;12.808;2022-10-29T13:15:22;19.05;;;10.75;;
32838;SDS011;19182;41.820;12.808;2022-10-29T13:17:52;14.23;;;7.38;;
32838;SDS011;19182;41.820;12.808;2022-10-29T13:22:59;8.70;;;2.97;;
32838;SDS011;19182;41.820;12.808;2022-10-29T13:25:49;8.13;;;3.58;;
32838;SDS011;19182;41.820;12.808;2022-10-29T13:31:41;10.45;;;2.80;;
32838;SDS011;19182;41.820;12.808;2022-10-29T13:34:01;16.17;;;6.72;;
32838;SDS011;19182;41.820;12.808;2022-10-29T13:39:01;23.17;;;9.68;;
32838;SDS011;19182;41.820;12.808;2022-10-29T13:41:42;7.13;;;2.50;;
32838;SDS011;19182;41.820;12.808;2022-10-29T13:44:15;6.15;;;2.60;;
32838;SDS011;19182;41.820;12.808;2022-10-29T13:46:48;8.52;;;2.70;;
32838;SDS011;19182;41.820;12.808;2022-10-29T13:49:29;11.05;;;3.70;;
32838;SDS011;19182;41.820;12.808;2022-10-29T13:52:09;7.65;;;2.40;;
32838;SDS011;19182;41.820;12.808;2022-10-29T14:11:19;5.53;;;2.15;;
32838;SDS011;19182;41.820;12.808;2022-10-29T14:13:52;13.18;;;4.88;;
32838;SDS011;19182;41.820;12.808;2022-10-29T14:16:32;9.48;;;3.67;;
32838;SDS011;19182;41.820;12.808;2022-10-29T14:19:11;8.73;;;3.95;;
32838;SDS011;19182;41.820;12.808;2022-10-29T14:21:38;8.02;;;3.03;;
32838;SDS011;19182;41.820;12.808;2022-10-29T14:24:08;5.90;;;2.28;;
32838;SDS011;19182;41.820;12.808;2022-10-29T14:26:39;8.13;;;1.98;;
32838;SDS011;19182;41.820;12.808;2022-10-29T14:29:13;9.60;;;2.22;;
32838;SDS011;19182;41.820;12.808;2022-10-29T14:31:42;7.22;;;2.03;;
32838;SDS011;19182;41.820;12.808;2022-10-29T14:34:20;7.05;;;1.75;;
32838;SDS011;19182;41.820;12.808;2022-10-29T14:36:49;72.13;;;50.35;;
32838;SDS011;19182;41.820;12.808;2022-10-29T14:41:59;14.73;;;8.82;;
32838;SDS011;19182;41.820;12.808;2022-10-29T14:44:32;7.22;;;3.95;;
32838;SDS011;19182;41.820;12.808;2022-10-29T14:47:06;10.10;;;3.90;;
32838;SDS011;19182;41.820;12.808;2022-10-29T14:49:45;28.27;;;14.15;;
32838;SDS011;19182;41.820;12.808;2022-10-29T14:52:25;6.55;;;2.25;;
32838;SDS011;19182;41.820;12.808;2022-10-29T14:55:05;9.43;;;3.50;;
32838;SDS011;19182;41.820;12.808;2022-10-29T14:58:02;16.17;;;7.88;;
32838;SDS011;19182;41.820;12.808;2022-10-29T15:00:46;6.85;;;2.50;;
32838;SDS011;19182;41.820;12.808;2022-10-29T15:03:22;8.82;;;2.30;;
32838;SDS011;19182;41.820;12.808;2022-10-29T15:06:07;5.80;;;2.50;;
32838;SDS011;19182;41.820;12.808;2022-10-29T15:08:39;15.75;;;8.13;;
32838;SDS011;19182;41.820;12.808;2022-10-29T15:11:30;4.30;;;2.00;;
32838;SDS011;19182;41.820;12.808;2022-10-29T15:13:58;4.35;;;1.77;;
32838;SDS011;19182;41.820;12.808;2022-10-29T15:16:24;11.90;;;2.42;;
32838;SDS011;19182;41.820;12.808;2022-10-29T15:18:50;8.10;;;2.22;;
32838;SDS011;19182;41.820;12.808;2022-10-29T15:21:21;6.30;;;3.03;;
32838;SDS011;19182;41.820;12.808;2022-10-29T15:23:51;13.15;;;4.15;;
32838;SDS011;19182;41.820;12.808;2022-10-29T15:26:31;8.10;;;4.80;;
32838;SDS011;19182;41.820;12.808;2022-10-29T15:29:00;9.43;;;3.33;;
32838;SDS011;19182;41.820;12.808;2022-10-29T15:31:33;12.63;;;4.20;;
32838;SDS011;19182;41.820;12.808;2022-10-29T15:34:13;7.60;;;3.53;;
32838;SDS011;19182;41.820;12.808;2022-10-29T15:36:53;10.55;;;3.63;;
32838;SDS011;19182;41.820;12.808;2022-10-29T15:39:23;11.02;;;3.35;;
32838;SDS011;19182;41.820;12.808;2022-10-29T15:42:02;13.45;;;5.70;;
32838;SDS011;19182;41.820;12.808;2022-10-29T15:44:38;21.35;;;4.80;;
32838;SDS011;19182;41.820;12.808;2022-10-29T15:47:38;8.90;;;4.07;;
32838;SDS011;19182;41.820;12.808;2022-10-29T15:50:01;15.07;;;5.90;;
32838;SDS011;19182;41.820;12.808;2022-10-29T15:52:33;12.05;;;6.18;;
32838;SDS011;19182;41.820;12.808;2022-10-29T15:55:09;23.52;;;8.38;;
32838;SDS011;19182;41.820;12.808;2022-10-29T15:57:46;13.70;;;4.93;;
32838;SDS011;19182;41.820;12.808;2022-10-29T16:00:15;16.67;;;5.65;;
32838;SDS011;19182;41.820;12.808;2022-10-29T16:02:42;14.70;;;5.28;;
32838;SDS011;19182;41.820;12.808;2022-10-29T16:05:10;22.83;;;10.82;;
32838;SDS011;19182;41.820;12.808;2022-10-29T16:10:03;26.80;;;12.30;;
32838;SDS011;19182;41.820;12.808;2022-10-29T16:12:29;29.15;;;12.45;;
32838;SDS011;19182;41.820;12.808;2022-10-29T16:14:55;36.72;;;9.13;;
32838;SDS011;19182;41.820;12.808;2022-10-29T16:17:21;32.58;;;11.73;;
32838;SDS011;19182;41.820;12.808;2022-10-29T16:19:47;26.52;;;10.23;;
32838;SDS011;19182;41.820;12.808;2022-10-29T16:22:13;22.48;;;9.95;;
32838;SDS011;19182;41.820;12.808;2022-10-29T16:24:52;25.30;;;8.05;;
32838;SDS011;19182;41.820;12.808;2022-10-29T16:27:19;14.77;;;6.05;;
32838;SDS011;19182;41.820;12.808;2022-10-29T16:29:45;18.85;;;5.50;;
32838;SDS011;19182;41.820;12.808;2022-10-29T16:32:14;19.50;;;5.70;;
32838;SDS011;19182;41.820;12.808;2022-10-29T16:34:41;26.30;;;8.48;;
32838;SDS011;19182;41.820;12.808;2022-10-29T16:37:11;29.98;;;9.77;;
32838;SDS011;19182;41.820;12.808;2022-10-29T16:39:39;26.23;;;9.73;;
32838;SDS011;19182;41.820;12.808;2022-10-29T16:42:30;31.98;;;11.23;;
32838;SDS011;19182;41.820;12.808;2022-10-29T16:44:57;35.63;;;12.48;;
32838;SDS011;19182;41.820;12.808;2022-10-29T16:47:22;27.25;;;10.95;;
32838;SDS011;19182;41.820;12.808;2022-10-29T16:49:48;33.50;;;13.07;;
32838;SDS011;19182;41.820;12.808;2022-10-29T16:52:14;34.50;;;13.20;;
32838;SDS011;19182;41.820;12.808;2022-10-29T16:54:40;26.77;;;11.48;;
32838;SDS011;19182;41.820;12.808;2022-10-29T16:57:05;33.33;;;13.00;;
32838;SDS011;19182;41.820;12.808;2022-10-29T16:59:31;26.65;;;12.60;;
32838;SDS011;19182;41.820;12.808;2022-10-29T17:02:00;27.63;;;12.15;;
32838;SDS011;19182;41.820;12.808;2022-10-29T17:04:26;26.58;;;12.90;;
32838;SDS011;19182;41.820;12.808;2022-10-29T17:06:53;28.17;;;11.73;;
32838;SDS011;19182;41.820;12.808;2022-10-29T17:09:18;28.42;;;11.43;;
32838;SDS011;19182;41.820;12.808;2022-10-29T17:11:48;30.70;;;11.23;;
32838;SDS011;19182;41.820;12.808;2022-10-29T17:14:13;24.63;;;10.32;;
32838;SDS011;19182;41.820;12.808;2022-10-29T17:16:39;24.55;;;11.13;;
32838;SDS011;19182;41.820;12.808;2022-10-29T17:19:06;28.77;;;11.65;;
32838;SDS011;19182;41.820;12.808;2022-10-29T17:21:32;28.67;;;12.05;;
32838;SDS011;19182;41.820;12.808;2022-10-29T17:23:58;28.15;;;13.73;;
32838;SDS011;19182;41.820;12.808;2022-10-29T17:26:24;35.72;;;16.50;;
32838;SDS011;19182;41.820;12.808;2022-10-29T17:28:49;32.17;;;13.73;;
32838;SDS011;19182;41.820;12.808;2022-10-29T17:31:15;32.13;;;16.63;;
32838;SDS011;19182;41.820;12.808;2022-10-29T17:33:41;31.77;;;14.80;;
32838;SDS011;19182;41.820;12.808;2022-10-29T17:36:11;36.55;;;17.02;;
32838;SDS011;19182;41.820;12.808;2022-10-29T17:38:38;30.73;;;16.63;;
32838;SDS011;19182;41.820;12.808;2022-10-29T17:41:04;29.73;;;16.35;;
32838;SDS011;19182;41.820;12.808;2022-10-29T17:43:30;36.15;;;18.15;;